sensor_id;sensor_type;location;lat;lon;timestamp;P1;durP1;ratioP1;P2;durP2;ratioP2
51654;SDS011;37732;53.106;7.030;2023-05-29T00:00:33;14.35;;;5.13;;
51654;SDS011;37732;53.106;7.030;2023-05-29T00:02:59;19.73;;;5.10;;
51654;SDS011;37732;53.106;7.030;2023-05-29T00:05:29;15.80;;;4.85;;
51654;SDS011;37732;53.106;7.030;2023-05-29T00:07:55;18.17;;;5.22;;
51654;SDS011;37732;53.106;7.030;2023-05-29T00:10:21;15.68;;;4.88;;
51654;SDS011;37732;53.106;7.030;2023-05-29T00:12:48;15.18;;;4.65;;
51654;SDS011;37732;53.106;7.030;2023-05-29T00:15:14;12.85;;;4.80;;
51654;SDS011;37732;53.106;7.030;2023-05-29T00:17:41;13.35;;;4.88;;
51654;SDS011;37732;53.106;7.030;2023-05-29T00:20:08;20.85;;;5.30;;
51654;SDS011;37732;53.106;7.030;2023-05-29T00:22:35;12.23;;;4.80;;
51654;SDS011;37732;53.106;7.030;2023-05-29T00:25:06;15.45;;;4.55;;
51654;SDS011;37732;53.106;7.030;2023-05-29T00:27:34;16.13;;;4.85;;
51654;SDS011;37732;53.106;7.030;2023-05-29T00:30:01;17.38;;;4.85;;
51654;SDS011;37732;53.106;7.030;2023-05-29T00:32:28;17.75;;;5.35;;
51654;SDS011;37732;53.106;7.030;2023-05-29T00:34:54;16.55;;;6.07;;
51654;SDS011;37732;53.106;7.030;2023-05-29T00:37:21;18.65;;;5.82;;
51654;SDS011;37732;53.106;7.030;2023-05-29T00:39:50;12.70;;;5.22;;
51654;SDS011;37732;53.106;7.030;2023-05-29T00:42:15;13.90;;;4.95;;
51654;SDS011;37732;53.106;7.030;2023-05-29T00:44:41;14.95;;;4.13;;
51654;SDS011;37732;53.106;7.030;2023-05-29T00:47:07;13.40;;;4.95;;
51654;SDS011;37732;53.106;7.030;2023-05-29T00:49:33;16.02;;;4.82;;
51654;SDS011;37732;53.106;7.030;2023-05-29T00:52:00;19.83;;;5.65;;
51654;SDS011;37732;53.106;7.030;2023-05-29T00:54:28;14.95;;;4.95;;
51654;SDS011;37732;53.106;7.030;2023-05-29T00:56:57;18.40;;;5.32;;
51654;SDS011;37732;53.106;7.030;2023-05-29T00:59:28;16.80;;;5.25;;
51654;SDS011;37732;53.106;7.030;2023-05-29T01:01:58;15.48;;;5.25;;
51654;SDS011;37732;53.106;7.030;2023-05-29T01:04:25;19.13;;;5.10;;
51654;SDS011;37732;53.106;7.030;2023-05-29T01:06:52;16.42;;;4.95;;
51654;SDS011;37732;53.106;7.030;2023-05-29T01:09:18;12.20;;;4.43;;
51654;SDS011;37732;53.106;7.030;2023-05-29T01:14:33;22.10;;;5.17;;
51654;SDS011;37732;53.106;7.030;2023-05-29T01:17:21;14.93;;;6.05;;
51654;SDS011;37732;53.106;7.030;2023-05-29T01:28:08;16.00;;;5.10;;
51654;SDS011;37732;53.106;7.030;2023-05-29T01:30:37;17.17;;;5.65;;
51654;SDS011;37732;53.106;7.030;2023-05-29T01:33:05;12.50;;;4.53;;
51654;SDS011;37732;53.106;7.030;2023-05-29T01:35:31;13.00;;;5.65;;
51654;SDS011;37732;53.106;7.030;2023-05-29T01:37:57;16.08;;;4.88;;
51654;SDS011;37732;53.106;7.030;2023-05-29T01:40:23;14.57;;;5.38;;
51654;SDS011;37732;53.106;7.030;2023-05-29T01:42:50;12.55;;;4.85;;
51654;SDS011;37732;53.106;7.030;2023-05-29T01:45:16;13.52;;;4.90;;
51654;SDS011;37732;53.106;7.030;2023-05-29T01:47:43;16.98;;;6.05;;
51654;SDS011;37732;53.106;7.030;2023-05-29T01:50:09;19.02;;;5.40;;
51654;SDS011;37732;53.106;7.030;2023-05-29T01:52:38;19.73;;;5.57;;
51654;SDS011;37732;53.106;7.030;2023-05-29T01:55:04;17.02;;;6.32;;
51654;SDS011;37732;53.106;7.030;2023-05-29T01:57:30;11.30;;;4.88;;
51654;SDS011;37732;53.106;7.030;2023-05-29T01:59:56;14.95;;;5.00;;
51654;SDS011;37732;53.106;7.030;2023-05-29T02:02:22;15.30;;;5.97;;
51654;SDS011;37732;53.106;7.030;2023-05-29T02:04:50;17.70;;;5.60;;
51654;SDS011;37732;53.106;7.030;2023-05-29T02:07:17;18.17;;;5.72;;
51654;SDS011;37732;53.106;7.030;2023-05-29T02:09:42;15.20;;;5.55;;
51654;SDS011;37732;53.106;7.030;2023-05-29T02:12:08;15.98;;;4.90;;
51654;SDS011;37732;53.106;7.030;2023-05-29T02:14:34;16.90;;;5.82;;
51654;SDS011;37732;53.106;7.030;2023-05-29T02:17:00;16.35;;;6.00;;
51654;SDS011;37732;53.106;7.030;2023-05-29T02:19:27;13.45;;;5.43;;
51654;SDS011;37732;53.106;7.030;2023-05-29T02:21:54;13.65;;;5.15;;
51654;SDS011;37732;53.106;7.030;2023-05-29T02:24:20;19.00;;;5.70;;
51654;SDS011;37732;53.106;7.030;2023-05-29T02:26:48;19.40;;;5.15;;
51654;SDS011;37732;53.106;7.030;2023-05-29T02:29:15;16.95;;;4.80;;
51654;SDS011;37732;53.106;7.030;2023-05-29T02:31:41;19.65;;;5.05;;
51654;SDS011;37732;53.106;7.030;2023-05-29T02:34:06;15.00;;;4.78;;
51654;SDS011;37732;53.106;7.030;2023-05-29T02:36:32;18.27;;;6.63;;
51654;SDS011;37732;53.106;7.030;2023-05-29T02:39:02;12.60;;;5.05;;
51654;SDS011;37732;53.106;7.030;2023-05-29T02:41:28;19.90;;;4.82;;
51654;SDS011;37732;53.106;7.030;2023-05-29T02:43:54;15.48;;;4.68;;
51654;SDS011;37732;53.106;7.030;2023-05-29T02:46:21;15.30;;;4.80;;
51654;SDS011;37732;53.106;7.030;2023-05-29T02:48:48;19.00;;;5.53;;
51654;SDS011;37732;53.106;7.030;2023-05-29T02:51:13;16.30;;;6.22;;
51654;SDS011;37732;53.106;7.030;2023-05-29T02:53:39;13.13;;;4.78;;
51654;SDS011;37732;53.106;7.030;2023-05-29T02:56:05;12.00;;;5.07;;
51654;SDS011;37732;53.106;7.030;2023-05-29T02:58:33;11.43;;;4.50;;
51654;SDS011;37732;53.106;7.030;2023-05-29T03:01:00;11.73;;;4.57;;
51654;SDS011;37732;53.106;7.030;2023-05-29T03:03:29;14.93;;;4.68;;
51654;SDS011;37732;53.106;7.030;2023-05-29T03:05:57;13.07;;;4.75;;
51654;SDS011;37732;53.106;7.030;2023-05-29T03:08:24;14.57;;;4.13;;
51654;SDS011;37732;53.106;7.030;2023-05-29T03:10:51;15.02;;;4.65;;
51654;SDS011;37732;53.106;7.030;2023-05-29T03:13:17;16.33;;;4.93;;
51654;SDS011;37732;53.106;7.030;2023-05-29T03:15:44;14.27;;;4.35;;
51654;SDS011;37732;53.106;7.030;2023-05-29T03:18:10;17.05;;;4.70;;
51654;SDS011;37732;53.106;7.030;2023-05-29T03:20:36;18.83;;;5.03;;
51654;SDS011;37732;53.106;7.030;2023-05-29T03:23:03;12.43;;;4.22;;
51654;SDS011;37732;53.106;7.030;2023-05-29T03:25:31;14.25;;;4.30;;
51654;SDS011;37732;53.106;7.030;2023-05-29T03:27:57;14.55;;;5.80;;
51654;SDS011;37732;53.106;7.030;2023-05-29T03:30:24;17.40;;;4.57;;
51654;SDS011;37732;53.106;7.030;2023-05-29T03:32:52;12.35;;;4.63;;
51654;SDS011;37732;53.106;7.030;2023-05-29T03:35:18;12.73;;;4.50;;
51654;SDS011;37732;53.106;7.030;2023-05-29T03:37:45;16.00;;;4.97;;
51654;SDS011;37732;53.106;7.030;2023-05-29T03:40:11;12.85;;;4.85;;
51654;SDS011;37732;53.106;7.030;2023-05-29T03:42:37;11.98;;;4.38;;
51654;SDS011;37732;53.106;7.030;2023-05-29T03:45:03;15.68;;;4.72;;
51654;SDS011;37732;53.106;7.030;2023-05-29T03:47:29;12.30;;;3.92;;
51654;SDS011;37732;53.106;7.030;2023-05-29T03:49:55;12.18;;;4.57;;
51654;SDS011;37732;53.106;7.030;2023-05-29T03:52:21;14.75;;;5.15;;
51654;SDS011;37732;53.106;7.030;2023-05-29T03:54:47;14.82;;;4.45;;
51654;SDS011;37732;53.106;7.030;2023-05-29T03:57:14;13.38;;;5.03;;
51654;SDS011;37732;53.106;7.030;2023-05-29T03:59:41;12.13;;;4.28;;
51654;SDS011;37732;53.106;7.030;2023-05-29T04:02:08;14.65;;;4.47;;
51654;SDS011;37732;53.106;7.030;2023-05-29T04:04:34;13.45;;;4.47;;
51654;SDS011;37732;53.106;7.030;2023-05-29T04:07:01;11.13;;;5.35;;
51654;SDS011;37732;53.106;7.030;2023-05-29T04:09:28;13.80;;;4.35;;
51654;SDS011;37732;53.106;7.030;2023-05-29T04:11:55;14.65;;;4.70;;
51654;SDS011;37732;53.106;7.030;2023-05-29T04:14:21;18.13;;;5.63;;
51654;SDS011;37732;53.106;7.030;2023-05-29T04:16:49;14.82;;;5.07;;
51654;SDS011;37732;53.106;7.030;2023-05-29T04:19:16;12.82;;;4.68;;
51654;SDS011;37732;53.106;7.030;2023-05-29T04:21:42;12.60;;;4.43;;
51654;SDS011;37732;53.106;7.030;2023-05-29T04:24:09;10.77;;;4.38;;
51654;SDS011;37732;53.106;7.030;2023-05-29T04:26:36;15.93;;;5.10;;
51654;SDS011;37732;53.106;7.030;2023-05-29T04:29:06;17.23;;;5.95;;
51654;SDS011;37732;53.106;7.030;2023-05-29T04:31:38;15.98;;;5.28;;
51654;SDS011;37732;53.106;7.030;2023-05-29T04:34:04;22.00;;;5.53;;
51654;SDS011;37732;53.106;7.030;2023-05-29T04:36:30;14.98;;;5.15;;
51654;SDS011;37732;53.106;7.030;2023-05-29T04:38:59;12.50;;;4.47;;
51654;SDS011;37732;53.106;7.030;2023-05-29T04:41:25;15.25;;;6.18;;
51654;SDS011;37732;53.106;7.030;2023-05-29T04:46:24;13.48;;;5.00;;
51654;SDS011;37732;53.106;7.030;2023-05-29T04:48:51;18.58;;;5.53;;
51654;SDS011;37732;53.106;7.030;2023-05-29T04:51:22;18.40;;;5.28;;
51654;SDS011;37732;53.106;7.030;2023-05-29T04:53:50;13.93;;;4.68;;
51654;SDS011;37732;53.106;7.030;2023-05-29T04:56:17;17.40;;;4.72;;
51654;SDS011;37732;53.106;7.030;2023-05-29T04:58:44;16.83;;;5.65;;
51654;SDS011;37732;53.106;7.030;2023-05-29T05:01:11;17.58;;;4.40;;
51654;SDS011;37732;53.106;7.030;2023-05-29T05:03:40;14.13;;;5.15;;
51654;SDS011;37732;53.106;7.030;2023-05-29T05:06:07;11.10;;;4.63;;
51654;SDS011;37732;53.106;7.030;2023-05-29T05:08:33;14.07;;;4.80;;
51654;SDS011;37732;53.106;7.030;2023-05-29T05:11:02;9.95;;;4.57;;
51654;SDS011;37732;53.106;7.030;2023-05-29T05:13:28;15.75;;;4.70;;
51654;SDS011;37732;53.106;7.030;2023-05-29T05:15:55;18.58;;;6.18;;
51654;SDS011;37732;53.106;7.030;2023-05-29T05:18:20;14.75;;;4.93;;
51654;SDS011;37732;53.106;7.030;2023-05-29T05:20:48;14.60;;;5.57;;
51654;SDS011;37732;53.106;7.030;2023-05-29T05:23:15;17.75;;;5.70;;
51654;SDS011;37732;53.106;7.030;2023-05-29T05:25:44;17.42;;;4.75;;
51654;SDS011;37732;53.106;7.030;2023-05-29T05:28:10;13.82;;;4.80;;
51654;SDS011;37732;53.106;7.030;2023-05-29T05:30:39;17.25;;;5.85;;
51654;SDS011;37732;53.106;7.030;2023-05-29T05:33:05;15.02;;;5.82;;
51654;SDS011;37732;53.106;7.030;2023-05-29T05:35:33;20.45;;;6.07;;
51654;SDS011;37732;53.106;7.030;2023-05-29T05:37:58;12.82;;;4.32;;
51654;SDS011;37732;53.106;7.030;2023-05-29T05:40:26;16.02;;;5.35;;
51654;SDS011;37732;53.106;7.030;2023-05-29T05:42:54;18.70;;;5.65;;
51654;SDS011;37732;53.106;7.030;2023-05-29T05:45:21;15.10;;;5.75;;
51654;SDS011;37732;53.106;7.030;2023-05-29T05:47:49;12.95;;;5.10;;
51654;SDS011;37732;53.106;7.030;2023-05-29T05:50:16;17.95;;;5.13;;
51654;SDS011;37732;53.106;7.030;2023-05-29T05:52:42;19.00;;;5.65;;
51654;SDS011;37732;53.106;7.030;2023-05-29T05:55:08;18.88;;;5.60;;
51654;SDS011;37732;53.106;7.030;2023-05-29T05:57:34;20.63;;;6.43;;
51654;SDS011;37732;53.106;7.030;2023-05-29T06:00:02;18.48;;;6.10;;
51654;SDS011;37732;53.106;7.030;2023-05-29T06:02:33;14.43;;;5.53;;
51654;SDS011;37732;53.106;7.030;2023-05-29T06:04:59;17.23;;;5.85;;
51654;SDS011;37732;53.106;7.030;2023-05-29T06:07:28;14.05;;;5.20;;
51654;SDS011;37732;53.106;7.030;2023-05-29T06:09:55;17.75;;;6.85;;
51654;SDS011;37732;53.106;7.030;2023-05-29T06:12:20;20.73;;;7.35;;
51654;SDS011;37732;53.106;7.030;2023-05-29T06:14:50;15.13;;;5.15;;
51654;SDS011;37732;53.106;7.030;2023-05-29T06:17:16;16.50;;;5.38;;
51654;SDS011;37732;53.106;7.030;2023-05-29T06:19:42;14.55;;;5.45;;
51654;SDS011;37732;53.106;7.030;2023-05-29T06:22:09;13.77;;;5.55;;
51654;SDS011;37732;53.106;7.030;2023-05-29T06:24:35;15.98;;;6.32;;
51654;SDS011;37732;53.106;7.030;2023-05-29T06:27:03;16.05;;;5.70;;
51654;SDS011;37732;53.106;7.030;2023-05-29T06:29:30;15.23;;;6.25;;
51654;SDS011;37732;53.106;7.030;2023-05-29T06:31:56;17.77;;;5.80;;
51654;SDS011;37732;53.106;7.030;2023-05-29T06:34:22;15.70;;;5.20;;
51654;SDS011;37732;53.106;7.030;2023-05-29T06:36:49;15.60;;;5.88;;
51654;SDS011;37732;53.106;7.030;2023-05-29T06:39:14;12.15;;;6.28;;
51654;SDS011;37732;53.106;7.030;2023-05-29T06:41:44;12.77;;;5.47;;
51654;SDS011;37732;53.106;7.030;2023-05-29T06:44:11;13.40;;;5.18;;
51654;SDS011;37732;53.106;7.030;2023-05-29T06:46:36;16.77;;;5.97;;
51654;SDS011;37732;53.106;7.030;2023-05-29T06:49:04;17.70;;;5.78;;
51654;SDS011;37732;53.106;7.030;2023-05-29T06:51:30;17.35;;;5.55;;
51654;SDS011;37732;53.106;7.030;2023-05-29T06:53:57;17.60;;;5.95;;
51654;SDS011;37732;53.106;7.030;2023-05-29T06:56:23;11.82;;;4.75;;
51654;SDS011;37732;53.106;7.030;2023-05-29T06:58:49;13.90;;;5.65;;
51654;SDS011;37732;53.106;7.030;2023-05-29T07:01:15;14.07;;;5.65;;
51654;SDS011;37732;53.106;7.030;2023-05-29T07:03:42;20.50;;;6.22;;
51654;SDS011;37732;53.106;7.030;2023-05-29T07:06:09;16.23;;;6.07;;
51654;SDS011;37732;53.106;7.030;2023-05-29T07:08:37;12.77;;;5.57;;
51654;SDS011;37732;53.106;7.030;2023-05-29T07:11:04;21.13;;;6.18;;
51654;SDS011;37732;53.106;7.030;2023-05-29T07:13:33;15.40;;;6.43;;
51654;SDS011;37732;53.106;7.030;2023-05-29T07:16:01;16.23;;;5.00;;
51654;SDS011;37732;53.106;7.030;2023-05-29T07:18:28;18.85;;;6.00;;
51654;SDS011;37732;53.106;7.030;2023-05-29T07:20:55;16.25;;;5.32;;
51654;SDS011;37732;53.106;7.030;2023-05-29T07:23:23;17.45;;;5.88;;
51654;SDS011;37732;53.106;7.030;2023-05-29T07:25:50;19.20;;;5.20;;
51654;SDS011;37732;53.106;7.030;2023-05-29T07:28:16;18.20;;;6.40;;
51654;SDS011;37732;53.106;7.030;2023-05-29T07:30:44;12.88;;;5.05;;
51654;SDS011;37732;53.106;7.030;2023-05-29T07:33:11;17.00;;;6.25;;
51654;SDS011;37732;53.106;7.030;2023-05-29T07:35:38;14.35;;;5.65;;
51654;SDS011;37732;53.106;7.030;2023-05-29T07:38:04;16.35;;;4.80;;
51654;SDS011;37732;53.106;7.030;2023-05-29T07:40:31;18.30;;;5.78;;
51654;SDS011;37732;53.106;7.030;2023-05-29T07:42:58;15.35;;;5.30;;
51654;SDS011;37732;53.106;7.030;2023-05-29T07:45:24;15.40;;;5.40;;
51654;SDS011;37732;53.106;7.030;2023-05-29T07:47:52;17.98;;;6.10;;
51654;SDS011;37732;53.106;7.030;2023-05-29T07:50:20;17.35;;;5.97;;
51654;SDS011;37732;53.106;7.030;2023-05-29T07:52:46;16.05;;;5.47;;
51654;SDS011;37732;53.106;7.030;2023-05-29T07:55:14;14.38;;;6.15;;
51654;SDS011;37732;53.106;7.030;2023-05-29T07:57:40;15.05;;;5.75;;
51654;SDS011;37732;53.106;7.030;2023-05-29T08:00:06;16.65;;;5.65;;
51654;SDS011;37732;53.106;7.030;2023-05-29T08:02:35;18.40;;;5.80;;
51654;SDS011;37732;53.106;7.030;2023-05-29T08:05:02;12.50;;;4.78;;
51654;SDS011;37732;53.106;7.030;2023-05-29T08:07:29;18.67;;;5.25;;
51654;SDS011;37732;53.106;7.030;2023-05-29T08:09:55;15.52;;;5.60;;
51654;SDS011;37732;53.106;7.030;2023-05-29T08:12:21;12.90;;;5.78;;
51654;SDS011;37732;53.106;7.030;2023-05-29T08:14:47;15.45;;;5.28;;
51654;SDS011;37732;53.106;7.030;2023-05-29T08:17:13;12.73;;;5.43;;
51654;SDS011;37732;53.106;7.030;2023-05-29T08:19:41;15.85;;;5.28;;
51654;SDS011;37732;53.106;7.030;2023-05-29T08:22:11;12.77;;;5.35;;
51654;SDS011;37732;53.106;7.030;2023-05-29T08:24:39;15.68;;;5.25;;
51654;SDS011;37732;53.106;7.030;2023-05-29T08:27:07;17.13;;;5.75;;
51654;SDS011;37732;53.106;7.030;2023-05-29T08:29:34;20.77;;;5.78;;
51654;SDS011;37732;53.106;7.030;2023-05-29T08:32:01;21.48;;;7.15;;
51654;SDS011;37732;53.106;7.030;2023-05-29T08:34:28;13.85;;;5.60;;
51654;SDS011;37732;53.106;7.030;2023-05-29T08:36:55;18.52;;;5.05;;
51654;SDS011;37732;53.106;7.030;2023-05-29T08:39:23;23.63;;;6.88;;
51654;SDS011;37732;53.106;7.030;2023-05-29T08:44:24;17.35;;;4.85;;
51654;SDS011;37732;53.106;7.030;2023-05-29T08:46:53;19.30;;;5.50;;
51654;SDS011;37732;53.106;7.030;2023-05-29T08:49:21;14.13;;;5.60;;
51654;SDS011;37732;53.106;7.030;2023-05-29T08:51:57;16.00;;;5.35;;
51654;SDS011;37732;53.106;7.030;2023-05-29T08:54:35;17.00;;;6.03;;
51654;SDS011;37732;53.106;7.030;2023-05-29T08:57:02;17.60;;;5.53;;
51654;SDS011;37732;53.106;7.030;2023-05-29T08:59:29;15.40;;;5.03;;
51654;SDS011;37732;53.106;7.030;2023-05-29T09:01:57;15.02;;;5.80;;
51654;SDS011;37732;53.106;7.030;2023-05-29T09:04:24;17.92;;;5.85;;
51654;SDS011;37732;53.106;7.030;2023-05-29T09:06:49;14.90;;;5.80;;
51654;SDS011;37732;53.106;7.030;2023-05-29T09:09:18;14.90;;;5.20;;
51654;SDS011;37732;53.106;7.030;2023-05-29T09:11:46;15.50;;;6.18;;
51654;SDS011;37732;53.106;7.030;2023-05-29T09:17:02;17.60;;;6.03;;
51654;SDS011;37732;53.106;7.030;2023-05-29T09:19:30;15.82;;;5.63;;
51654;SDS011;37732;53.106;7.030;2023-05-29T09:22:02;16.75;;;5.88;;
51654;SDS011;37732;53.106;7.030;2023-05-29T09:24:35;15.60;;;6.13;;
51654;SDS011;37732;53.106;7.030;2023-05-29T09:27:03;18.05;;;5.32;;
51654;SDS011;37732;53.106;7.030;2023-05-29T09:32:08;17.80;;;5.20;;
51654;SDS011;37732;53.106;7.030;2023-05-29T09:34:36;14.05;;;6.47;;
51654;SDS011;37732;53.106;7.030;2023-05-29T09:37:04;19.05;;;5.88;;
51654;SDS011;37732;53.106;7.030;2023-05-29T09:39:45;18.52;;;6.50;;
51654;SDS011;37732;53.106;7.030;2023-05-29T09:42:14;15.10;;;5.35;;
51654;SDS011;37732;53.106;7.030;2023-05-29T09:44:42;19.67;;;5.80;;
51654;SDS011;37732;53.106;7.030;2023-05-29T09:47:16;15.40;;;4.95;;
51654;SDS011;37732;53.106;7.030;2023-05-29T09:49:44;18.10;;;4.78;;
51654;SDS011;37732;53.106;7.030;2023-05-29T09:52:12;16.38;;;5.45;;
51654;SDS011;37732;53.106;7.030;2023-05-29T09:54:44;17.63;;;6.95;;
51654;SDS011;37732;53.106;7.030;2023-05-29T09:57:16;13.43;;;5.73;;
51654;SDS011;37732;53.106;7.030;2023-05-29T09:59:45;14.13;;;5.47;;
51654;SDS011;37732;53.106;7.030;2023-05-29T10:02:17;11.60;;;5.65;;
51654;SDS011;37732;53.106;7.030;2023-05-29T10:04:43;13.90;;;5.38;;
51654;SDS011;37732;53.106;7.030;2023-05-29T10:07:11;14.27;;;5.38;;
51654;SDS011;37732;53.106;7.030;2023-05-29T10:10:00;22.85;;;5.97;;
51654;SDS011;37732;53.106;7.030;2023-05-29T10:12:34;14.07;;;4.80;;
51654;SDS011;37732;53.106;7.030;2023-05-29T10:15:06;15.40;;;5.13;;
51654;SDS011;37732;53.106;7.030;2023-05-29T10:20:31;15.20;;;5.82;;
51654;SDS011;37732;53.106;7.030;2023-05-29T10:22:59;14.25;;;5.15;;
51654;SDS011;37732;53.106;7.030;2023-05-29T10:25:29;12.15;;;5.32;;
51654;SDS011;37732;53.106;7.030;2023-05-29T10:27:59;16.40;;;4.93;;
51654;SDS011;37732;53.106;7.030;2023-05-29T10:35:57;13.13;;;4.90;;
51654;SDS011;37732;53.106;7.030;2023-05-29T10:38:35;12.45;;;4.90;;
51654;SDS011;37732;53.106;7.030;2023-05-29T10:47:12;10.02;;;4.13;;
51654;SDS011;37732;53.106;7.030;2023-05-29T10:49:17;12.38;;;5.05;;
51654;SDS011;37732;53.106;7.030;2023-05-29T10:51:43;11.70;;;5.03;;
51654;SDS011;37732;53.106;7.030;2023-05-29T10:54:10;11.73;;;4.72;;
51654;SDS011;37732;53.106;7.030;2023-05-29T10:56:36;13.02;;;5.00;;
51654;SDS011;37732;53.106;7.030;2023-05-29T10:59:02;12.95;;;5.70;;
51654;SDS011;37732;53.106;7.030;2023-05-29T11:01:29;14.35;;;4.90;;
51654;SDS011;37732;53.106;7.030;2023-05-29T11:06:44;17.40;;;4.55;;
51654;SDS011;37732;53.106;7.030;2023-05-29T11:15:08;18.13;;;5.28;;
51654;SDS011;37732;53.106;7.030;2023-05-29T11:20:13;10.30;;;4.18;;
51654;SDS011;37732;53.106;7.030;2023-05-29T11:25:24;12.57;;;5.35;;
51654;SDS011;37732;53.106;7.030;2023-05-29T11:27:50;11.93;;;6.68;;
51654;SDS011;37732;53.106;7.030;2023-05-29T11:30:19;13.02;;;4.43;;
51654;SDS011;37732;53.106;7.030;2023-05-29T11:32:46;16.02;;;5.32;;
51654;SDS011;37732;53.106;7.030;2023-05-29T11:35:13;15.05;;;5.30;;
51654;SDS011;37732;53.106;7.030;2023-05-29T11:37:39;13.65;;;4.70;;
51654;SDS011;37732;53.106;7.030;2023-05-29T11:40:09;16.52;;;4.53;;
51654;SDS011;37732;53.106;7.030;2023-05-29T11:42:44;14.75;;;5.10;;
51654;SDS011;37732;53.106;7.030;2023-05-29T11:45:14;15.38;;;4.60;;
51654;SDS011;37732;53.106;7.030;2023-05-29T11:47:54;13.07;;;4.50;;
51654;SDS011;37732;53.106;7.030;2023-05-29T11:50:29;15.10;;;5.22;;
51654;SDS011;37732;53.106;7.030;2023-05-29T11:52:56;12.15;;;4.90;;
51654;SDS011;37732;53.106;7.030;2023-05-29T11:55:24;13.32;;;5.10;;
51654;SDS011;37732;53.106;7.030;2023-05-29T11:57:51;14.75;;;5.22;;
51654;SDS011;37732;53.106;7.030;2023-05-29T12:00:24;14.25;;;5.05;;
51654;SDS011;37732;53.106;7.030;2023-05-29T12:02:51;17.95;;;4.70;;
51654;SDS011;37732;53.106;7.030;2023-05-29T12:05:18;14.30;;;4.70;;
51654;SDS011;37732;53.106;7.030;2023-05-29T12:10:15;14.75;;;4.70;;
51654;SDS011;37732;53.106;7.030;2023-05-29T12:12:51;12.43;;;4.60;;
51654;SDS011;37732;53.106;7.030;2023-05-29T12:15:18;13.10;;;5.07;;
51654;SDS011;37732;53.106;7.030;2023-05-29T12:17:45;15.98;;;6.05;;
51654;SDS011;37732;53.106;7.030;2023-05-29T12:20:12;11.50;;;4.28;;
51654;SDS011;37732;53.106;7.030;2023-05-29T12:22:39;13.07;;;4.80;;
51654;SDS011;37732;53.106;7.030;2023-05-29T12:25:09;11.85;;;4.38;;
51654;SDS011;37732;53.106;7.030;2023-05-29T12:27:41;11.57;;;4.15;;
51654;SDS011;37732;53.106;7.030;2023-05-29T12:32:39;12.68;;;5.78;;
51654;SDS011;37732;53.106;7.030;2023-05-29T12:35:24;14.75;;;6.95;;
51654;SDS011;37732;53.106;7.030;2023-05-29T12:37:57;15.55;;;5.00;;
51654;SDS011;37732;53.106;7.030;2023-05-29T12:40:26;15.00;;;6.82;;
51654;SDS011;37732;53.106;7.030;2023-05-29T12:42:57;14.55;;;5.50;;
51654;SDS011;37732;53.106;7.030;2023-05-29T12:47:54;9.93;;;4.60;;
51654;SDS011;37732;53.106;7.030;2023-05-29T12:55:36;13.20;;;5.35;;
51654;SDS011;37732;53.106;7.030;2023-05-29T12:58:09;13.98;;;4.25;;
51654;SDS011;37732;53.106;7.030;2023-05-29T13:00:42;12.38;;;4.25;;
51654;SDS011;37732;53.106;7.030;2023-05-29T13:03:09;12.13;;;5.40;;
51654;SDS011;37732;53.106;7.030;2023-05-29T13:05:36;14.55;;;4.28;;
51654;SDS011;37732;53.106;7.030;2023-05-29T13:08:03;12.25;;;4.60;;
51654;SDS011;37732;53.106;7.030;2023-05-29T13:10:32;12.77;;;4.30;;
51654;SDS011;37732;53.106;7.030;2023-05-29T13:12:59;14.88;;;4.75;;
51654;SDS011;37732;53.106;7.030;2023-05-29T13:15:25;12.02;;;4.28;;
51654;SDS011;37732;53.106;7.030;2023-05-29T13:17:54;14.23;;;4.20;;
51654;SDS011;37732;53.106;7.030;2023-05-29T13:20:19;11.55;;;4.50;;
51654;SDS011;37732;53.106;7.030;2023-05-29T13:22:47;13.45;;;4.45;;
51654;SDS011;37732;53.106;7.030;2023-05-29T13:25:14;10.95;;;3.70;;
51654;SDS011;37732;53.106;7.030;2023-05-29T13:27:45;10.88;;;4.22;;
51654;SDS011;37732;53.106;7.030;2023-05-29T13:30:15;13.35;;;4.28;;
51654;SDS011;37732;53.106;7.030;2023-05-29T13:32:42;9.38;;;3.95;;
51654;SDS011;37732;53.106;7.030;2023-05-29T13:35:08;10.38;;;4.30;;
51654;SDS011;37732;53.106;7.030;2023-05-29T13:37:35;10.07;;;3.95;;
51654;SDS011;37732;53.106;7.030;2023-05-29T13:40:05;9.55;;;3.80;;
51654;SDS011;37732;53.106;7.030;2023-05-29T13:42:32;12.88;;;4.10;;
51654;SDS011;37732;53.106;7.030;2023-05-29T13:44:59;9.43;;;3.72;;
51654;SDS011;37732;53.106;7.030;2023-05-29T13:47:26;11.73;;;4.32;;
51654;SDS011;37732;53.106;7.030;2023-05-29T13:49:55;13.00;;;4.35;;
51654;SDS011;37732;53.106;7.030;2023-05-29T13:52:21;13.77;;;4.22;;
51654;SDS011;37732;53.106;7.030;2023-05-29T13:54:47;11.85;;;4.30;;
51654;SDS011;37732;53.106;7.030;2023-05-29T13:57:16;11.07;;;3.63;;
51654;SDS011;37732;53.106;7.030;2023-05-29T13:59:43;8.68;;;4.35;;
51654;SDS011;37732;53.106;7.030;2023-05-29T14:02:10;10.38;;;4.43;;
51654;SDS011;37732;53.106;7.030;2023-05-29T14:04:38;13.80;;;4.15;;
51654;SDS011;37732;53.106;7.030;2023-05-29T14:07:06;14.05;;;4.18;;
51654;SDS011;37732;53.106;7.030;2023-05-29T14:09:32;9.18;;;4.13;;
51654;SDS011;37732;53.106;7.030;2023-05-29T14:12:01;12.32;;;4.22;;
51654;SDS011;37732;53.106;7.030;2023-05-29T14:14:28;11.23;;;3.53;;
51654;SDS011;37732;53.106;7.030;2023-05-29T14:16:54;9.88;;;3.53;;
51654;SDS011;37732;53.106;7.030;2023-05-29T14:19:22;10.93;;;4.00;;
51654;SDS011;37732;53.106;7.030;2023-05-29T14:21:49;12.52;;;3.83;;
51654;SDS011;37732;53.106;7.030;2023-05-29T14:24:16;10.43;;;3.47;;
51654;SDS011;37732;53.106;7.030;2023-05-29T14:26:44;11.43;;;3.83;;
51654;SDS011;37732;53.106;7.030;2023-05-29T14:29:12;10.45;;;4.45;;
51654;SDS011;37732;53.106;7.030;2023-05-29T14:31:39;11.13;;;3.17;;
51654;SDS011;37732;53.106;7.030;2023-05-29T14:34:06;13.57;;;4.10;;
51654;SDS011;37732;53.106;7.030;2023-05-29T14:36:32;11.20;;;4.07;;
51654;SDS011;37732;53.106;7.030;2023-05-29T14:38:59;12.52;;;3.80;;
51654;SDS011;37732;53.106;7.030;2023-05-29T14:41:26;9.82;;;3.35;;
51654;SDS011;37732;53.106;7.030;2023-05-29T14:43:52;12.60;;;5.20;;
51654;SDS011;37732;53.106;7.030;2023-05-29T14:46:24;10.15;;;3.88;;
51654;SDS011;37732;53.106;7.030;2023-05-29T14:48:52;12.05;;;3.60;;
51654;SDS011;37732;53.106;7.030;2023-05-29T14:51:19;9.95;;;3.75;;
51654;SDS011;37732;53.106;7.030;2023-05-29T14:53:46;14.45;;;4.57;;
51654;SDS011;37732;53.106;7.030;2023-05-29T14:56:12;11.27;;;3.85;;
51654;SDS011;37732;53.106;7.030;2023-05-29T14:58:40;12.65;;;4.40;;
51654;SDS011;37732;53.106;7.030;2023-05-29T15:01:07;10.43;;;3.47;;
51654;SDS011;37732;53.106;7.030;2023-05-29T15:03:33;10.30;;;3.67;;
51654;SDS011;37732;53.106;7.030;2023-05-29T15:06:00;9.93;;;3.58;;
51654;SDS011;37732;53.106;7.030;2023-05-29T15:08:28;10.77;;;3.33;;
51654;SDS011;37732;53.106;7.030;2023-05-29T15:11:02;8.35;;;3.20;;
51654;SDS011;37732;53.106;7.030;2023-05-29T15:13:29;9.25;;;3.47;;
51654;SDS011;37732;53.106;7.030;2023-05-29T15:15:55;10.50;;;3.03;;
51654;SDS011;37732;53.106;7.030;2023-05-29T15:18:25;11.80;;;3.17;;
51654;SDS011;37732;53.106;7.030;2023-05-29T15:20:52;9.60;;;3.33;;
51654;SDS011;37732;53.106;7.030;2023-05-29T15:23:19;10.15;;;3.22;;
51654;SDS011;37732;53.106;7.030;2023-05-29T15:25:49;10.88;;;4.03;;
51654;SDS011;37732;53.106;7.030;2023-05-29T15:28:15;7.57;;;3.05;;
51654;SDS011;37732;53.106;7.030;2023-05-29T15:30:41;9.10;;;3.33;;
51654;SDS011;37732;53.106;7.030;2023-05-29T15:33:08;8.93;;;3.22;;
51654;SDS011;37732;53.106;7.030;2023-05-29T15:35:38;10.30;;;3.33;;
51654;SDS011;37732;53.106;7.030;2023-05-29T15:38:09;16.58;;;4.28;;
51654;SDS011;37732;53.106;7.030;2023-05-29T15:40:37;8.73;;;2.90;;